createdAt,value
2022-10-15T00:01:28.172Z,8.40
2022-10-15T00:03:58.056Z,8.82
2022-10-15T00:06:26.165Z,9.20
2022-10-15T00:08:54.173Z,10.40
2022-10-15T00:11:23.455Z,7.43
2022-10-15T00:13:51.553Z,8.73
2022-10-15T00:16:20.506Z,9.00
2022-10-15T00:18:48.725Z,8.35
2022-10-15T00:21:20.173Z,9.48
2022-10-15T00:23:48.310Z,6.25
2022-10-15T00:26:17.541Z,8.40
2022-10-15T00:28:46.346Z,6.53
2022-10-15T00:31:15.631Z,9.32
2022-10-15T00:33:45.295Z,9.77
2022-10-15T00:36:14.473Z,7.38
2022-10-15T00:38:44.971Z,11.63
2022-10-15T00:41:14.746Z,8.77
2022-10-15T00:43:44.463Z,7.65
2022-10-15T00:46:21.026Z,7.32
2022-10-15T00:48:51.633Z,9.02
2022-10-15T00:51:20.725Z,8.40
2022-10-15T00:53:51.600Z,6.82
2022-10-15T00:56:21.431Z,10.43
2022-10-15T00:58:50.100Z,10.52
2022-10-15T01:01:18.171Z,9.93
2022-10-15T01:03:46.279Z,9.52
2022-10-15T01:06:14.460Z,11.77
2022-10-15T01:08:43.507Z,13.82
2022-10-15T01:11:19.566Z,9.45
2022-10-15T01:13:53.048Z,10.80
2022-10-15T01:16:24.701Z,8.10
2022-10-15T01:18:55.361Z,9.55
2022-10-15T01:21:26.748Z,6.85
2022-10-15T01:24:27.736Z,8.65
2022-10-15T01:27:13.583Z,9.27
2022-10-15T01:30:02.553Z,8.88
2022-10-15T01:32:36.213Z,10.38
2022-10-15T01:35:09.956Z,7.68
2022-10-15T01:37:41.102Z,9.85
2022-10-15T01:40:10.966Z,10.82
2022-10-15T01:42:45.488Z,9.43
2022-10-15T01:45:19.228Z,9.45
2022-10-15T01:48:05.144Z,9.75
2022-10-15T01:50:34.790Z,9.75
2022-10-15T01:53:03.937Z,11.93
2022-10-15T01:55:34.340Z,8.27
2022-10-15T01:58:03.996Z,8.73
2022-10-15T02:00:32.085Z,11.68
2022-10-15T02:03:05.669Z,14.93
2022-10-15T02:05:36.168Z,11.57
2022-10-15T02:08:08.617Z,11.68
2022-10-15T02:10:41.500Z,10.68
2022-10-15T02:13:13.081Z,11.65
2022-10-15T02:15:46.604Z,9.23
2022-10-15T02:18:17.820Z,10.65
2022-10-15T02:20:50.162Z,10.68
2022-10-15T02:23:20.293Z,10.57
2022-10-15T02:25:49.156Z,10.00
2022-10-15T02:28:19.487Z,11.30
2022-10-15T02:30:50.104Z,11.35
2022-10-15T02:33:20.627Z,10.88
2022-10-15T02:35:50.074Z,10.88
2022-10-15T02:38:19.282Z,9.55
2022-10-15T02:40:48.604Z,11.32
2022-10-15T02:43:17.471Z,10.55
2022-10-15T02:45:45.476Z,8.98
2022-10-15T02:48:13.819Z,9.52
2022-10-15T02:50:44.090Z,13.23
2022-10-15T02:53:15.249Z,9.82
2022-10-15T02:55:44.154Z,10.60
2022-10-15T02:58:13.412Z,8.75
2022-10-15T03:00:44.488Z,10.65
2022-10-15T03:03:15.637Z,11.35
2022-10-15T03:05:47.793Z,10.02
2022-10-15T03:08:17.313Z,10.13
2022-10-15T03:10:46.334Z,11.45
2022-10-15T03:13:14.445Z,11.02
2022-10-15T03:15:50.511Z,9.45
2022-10-15T03:18:20.938Z,10.60
2022-10-15T03:20:55.792Z,9.95
2022-10-15T03:23:23.704Z,8.68
2022-10-15T03:25:59.578Z,12.63
2022-10-15T03:28:27.751Z,13.85
2022-10-15T03:30:55.524Z,13.15
2022-10-15T03:33:25.166Z,9.50
2022-10-15T03:35:57.569Z,10.65
2022-10-15T03:38:26.284Z,11.75
2022-10-15T03:40:55.596Z,8.82
2022-10-15T03:43:35.395Z,10.60
2022-10-15T03:46:07.393Z,11.23
2022-10-15T03:48:39.557Z,11.82
2022-10-15T03:51:09.027Z,12.13
2022-10-15T03:53:37.017Z,12.63
2022-10-15T03:56:09.449Z,13.43
2022-10-15T03:58:40.073Z,13.68
2022-10-15T04:01:13.889Z,14.20
2022-10-15T04:03:42.189Z,13.15
2022-10-15T04:06:12.308Z,13.75
2022-10-15T04:08:41.894Z,13.40
2022-10-15T04:11:29.170Z,12.70
2022-10-15T04:14:04.050Z,11.93
2022-10-15T04:16:33.898Z,14.57
2022-10-15T04:19:10.211Z,14.10
2022-10-15T04:21:43.910Z,13.25
2022-10-15T04:24:25.323Z,14.85
2022-10-15T04:26:56.298Z,12.48
2022-10-15T04:29:24.069Z,13.38
2022-10-15T04:31:54.821Z,13.70
2022-10-15T04:34:22.999Z,11.88
2022-10-15T04:36:54.284Z,14.52
2022-10-15T04:39:23.233Z,11.85
2022-10-15T04:41:56.275Z,15.30
2022-10-15T04:44:31.172Z,10.90
2022-10-15T04:47:02.400Z,12.95
2022-10-15T04:49:59.307Z,11.35
2022-10-15T04:52:38.834Z,10.68
2022-10-15T04:55:11.724Z,11.60
2022-10-15T04:57:40.330Z,11.70
2022-10-15T05:00:09.044Z,10.77
2022-10-15T05:03:11.220Z,12.52
2022-10-15T05:05:48.417Z,11.52
2022-10-15T05:08:18.067Z,10.93
2022-10-15T05:11:05.206Z,12.02
2022-10-15T05:13:33.767Z,8.60
2022-10-15T05:16:10.340Z,10.23
2022-10-15T05:18:39.088Z,12.30
2022-10-15T05:21:07.314Z,12.95
2022-10-15T05:23:38.345Z,12.93
2022-10-15T05:26:21.353Z,10.20
2022-10-15T05:28:50.121Z,10.73
2022-10-15T05:31:27.117Z,10.38
2022-10-15T05:34:07.653Z,10.90
2022-10-15T05:36:42.491Z,11.27
2022-10-15T05:39:12.327Z,10.27
2022-10-15T05:41:45.472Z,8.77
2022-10-15T05:44:16.145Z,9.25
2022-10-15T05:46:45.626Z,12.70
2022-10-15T05:49:20.297Z,10.10
2022-10-15T05:51:56.738Z,11.15
2022-10-15T05:54:42.780Z,9.82
2022-10-15T05:57:10.622Z,11.05
2022-10-15T05:59:39.783Z,12.63
2022-10-15T06:02:10.160Z,9.18
2022-10-15T06:04:38.142Z,11.50
2022-10-15T06:07:05.969Z,9.23
2022-10-15T06:09:35.012Z,10.82
2022-10-15T06:12:04.953Z,11.45
2022-10-15T06:14:33.199Z,9.93
2022-10-15T06:17:02.254Z,12.10
2022-10-15T06:19:30.462Z,14.48
2022-10-15T06:21:58.809Z,17.90
2022-10-15T06:24:27.334Z,12.68
2022-10-15T06:26:56.688Z,13.05
2022-10-15T06:29:26.603Z,15.40
2022-10-15T06:31:55.717Z,16.98
2022-10-15T06:34:23.666Z,16.13
2022-10-15T06:36:51.928Z,14.65
2022-10-15T06:39:19.931Z,16.63
2022-10-15T06:41:47.916Z,14.25
2022-10-15T06:44:15.897Z,15.65
2022-10-15T06:46:45.340Z,14.93
2022-10-15T06:49:16.074Z,14.80
2022-10-15T06:51:44.230Z,12.63
2022-10-15T06:54:12.361Z,13.82
2022-10-15T06:56:40.450Z,11.45
2022-10-15T06:59:08.700Z,16.02
2022-10-15T07:01:41.505Z,11.35
2022-10-15T07:04:12.685Z,10.15
2022-10-15T07:06:41.767Z,12.65
2022-10-15T07:09:12.457Z,10.98
2022-10-15T07:11:40.787Z,16.20
2022-10-15T07:14:09.236Z,8.27
2022-10-15T07:16:40.060Z,9.73
2022-10-15T07:19:08.747Z,8.88
2022-10-15T07:21:38.130Z,8.23
2022-10-15T07:24:06.494Z,8.93
2022-10-15T07:26:34.740Z,9.07
2022-10-15T07:29:04.033Z,10.10
2022-10-15T07:31:35.012Z,7.78
2022-10-15T07:34:03.339Z,7.55
2022-10-15T07:36:31.885Z,7.35
2022-10-15T07:39:01.290Z,7.90
2022-10-15T07:41:30.484Z,6.40
2022-10-15T07:44:03.886Z,6.65
2022-10-15T07:46:33.419Z,5.78
2022-10-15T07:49:01.480Z,7.00
2022-10-15T07:51:29.384Z,6.00
2022-10-15T07:53:57.423Z,6.75
2022-10-15T07:56:27.917Z,7.32
2022-10-15T07:58:55.998Z,7.82
2022-10-15T08:01:23.674Z,5.47
2022-10-15T08:03:53.553Z,5.20
2022-10-15T08:06:21.268Z,5.25
2022-10-15T08:08:48.984Z,4.82
2022-10-15T08:11:17.492Z,7.85
2022-10-15T08:13:48.205Z,6.55
2022-10-15T08:16:17.562Z,6.32
2022-10-15T08:21:23.918Z,5.95
2022-10-15T08:23:52.026Z,5.40
2022-10-15T08:26:20.228Z,6.10
2022-10-15T08:28:51.203Z,4.57
2022-10-15T08:31:21.483Z,5.82
2022-10-15T08:33:50.268Z,5.32
2022-10-15T08:36:18.970Z,7.40
2022-10-15T08:38:49.911Z,6.68
2022-10-15T08:41:25.561Z,5.47
2022-10-15T08:43:54.874Z,5.45
2022-10-15T08:46:25.369Z,4.35
2022-10-15T08:48:55.265Z,4.35
2022-10-15T08:51:24.638Z,4.05
2022-10-15T08:53:55.658Z,3.97
2022-10-15T08:56:25.355Z,3.17
2022-10-15T08:58:58.960Z,4.53
2022-10-15T09:01:31.441Z,4.50
2022-10-15T09:04:05.713Z,2.78
2022-10-15T09:06:38.176Z,2.33
2022-10-15T09:09:09.116Z,7.50
2022-10-15T09:11:41.792Z,1.98
2022-10-15T09:14:13.272Z,1.40
2022-10-15T09:16:43.091Z,2.47
2022-10-15T09:19:15.169Z,3.60
2022-10-15T09:21:45.946Z,3.53
2022-10-15T09:24:18.630Z,4.53
2022-10-15T09:26:51.492Z,3.05
2022-10-15T09:29:24.004Z,3.95
2022-10-15T09:31:55.317Z,1.88
2022-10-15T09:34:32.876Z,0.93
2022-10-15T09:37:04.089Z,1.20
2022-10-15T09:39:39.398Z,2.83
2022-10-15T09:42:13.197Z,1.25
2022-10-15T09:44:44.252Z,0.30
2022-10-15T09:47:21.083Z,1.80
2022-10-15T09:49:49.587Z,2.33
2022-10-15T09:52:20.740Z,0.77
2022-10-15T09:54:55.100Z,1.27
2022-10-15T09:57:25.916Z,2.70
2022-10-15T09:59:56.366Z,2.22
2022-10-15T10:02:27.143Z,1.08
2022-10-15T10:04:55.634Z,0.60
2022-10-15T10:07:33.877Z,1.35
2022-10-15T10:10:03.476Z,0.60
2022-10-15T10:12:33.420Z,1.15
2022-10-15T10:15:05.445Z,1.10
2022-10-15T10:17:33.712Z,0.80
2022-10-15T10:20:12.758Z,0.90
2022-10-15T10:22:46.452Z,0.45
2022-10-15T10:25:30.326Z,0.82
2022-10-15T10:27:59.658Z,0.47
2022-10-15T10:30:33.625Z,2.67
2022-10-15T10:33:02.316Z,0.50
2022-10-15T10:35:36.650Z,0.93
2022-10-15T10:38:04.793Z,1.33
2022-10-15T10:40:35.864Z,0.65
2022-10-15T10:43:18.498Z,2.65
2022-10-15T10:45:57.989Z,1.02
2022-10-15T10:48:29.238Z,1.00
2022-10-15T10:51:06.960Z,0.45
2022-10-15T10:53:38.921Z,1.20
2022-10-15T10:56:08.115Z,0.95
2022-10-15T10:58:37.297Z,0.30
2022-10-15T11:01:06.778Z,0.43
2022-10-15T11:03:37.021Z,0.73
2022-10-15T11:06:20.454Z,0.40
2022-10-15T11:08:56.505Z,0.70
2022-10-15T11:11:32.122Z,2.72
2022-10-15T11:14:07.613Z,0.70
2022-10-15T11:16:41.623Z,3.55
2022-10-15T11:19:19.720Z,0.50
2022-10-15T11:22:04.373Z,1.10
2022-10-15T11:24:48.498Z,0.65
2022-10-15T11:27:23.788Z,1.52
2022-10-15T11:29:55.954Z,0.40
2022-10-15T11:32:42.203Z,0.65
2022-10-15T11:35:51.673Z,0.28
2022-10-15T11:38:22.668Z,1.02
2022-10-15T11:40:57.331Z,0.35
2022-10-15T11:43:33.300Z,1.15
2022-10-15T11:46:06.555Z,1.15
2022-10-15T11:48:41.982Z,0.80
2022-10-15T11:51:15.169Z,0.60
2022-10-15T11:54:01.161Z,0.82
2022-10-15T11:56:35.068Z,0.90
2022-10-15T11:59:11.490Z,0.90
2022-10-15T12:01:42.559Z,0.55
2022-10-15T12:04:15.970Z,2.25
2022-10-15T12:06:45.292Z,0.63
2022-10-15T12:09:16.790Z,2.30
2022-10-15T12:11:49.543Z,0.68
2022-10-15T12:14:25.435Z,1.92
2022-10-15T12:16:56.502Z,1.58
2022-10-15T12:19:30.313Z,0.80
2022-10-15T12:22:07.359Z,2.38
2022-10-15T12:24:55.036Z,1.08
2022-10-15T12:27:28.473Z,1.20
2022-10-15T12:30:11.806Z,0.52
2022-10-15T12:32:42.038Z,0.50
2022-10-15T12:37:50.906Z,0.35
2022-10-15T12:40:27.683Z,0.40
2022-10-15T12:42:56.819Z,0.20
2022-10-15T12:45:37.313Z,2.00
2022-10-15T12:48:21.467Z,2.78
2022-10-15T12:50:50.898Z,0.63
2022-10-15T12:53:34.591Z,1.65
2022-10-15T12:56:13.640Z,1.50
2022-10-15T12:58:44.780Z,1.48
2022-10-15T13:01:27.706Z,0.60
2022-10-15T13:04:02.200Z,1.10
2022-10-15T13:06:35.643Z,0.52
2022-10-15T13:09:08.225Z,0.73
2022-10-15T13:11:37.757Z,0.82
2022-10-15T13:59:07.180Z,1.25
2022-10-15T14:01:36.190Z,2.17
2022-10-15T14:04:04.814Z,1.77
2022-10-15T14:06:33.489Z,0.85
2022-10-15T14:09:01.961Z,1.80
2022-10-15T14:11:30.284Z,1.60
2022-10-15T14:13:58.477Z,2.72
2022-10-15T14:16:29.338Z,3.33
2022-10-15T14:18:58.724Z,0.35
2022-10-15T14:21:29.112Z,2.55
2022-10-15T14:24:04.339Z,2.90
2022-10-15T14:26:32.480Z,2.28
2022-10-15T14:29:00.296Z,1.15
2022-10-15T14:31:34.131Z,2.20
2022-10-15T14:34:02.029Z,1.45
2022-10-15T14:36:30.647Z,1.60
2022-10-15T14:39:13.089Z,1.45
2022-10-15T14:41:40.662Z,3.88
2022-10-15T14:44:17.765Z,1.10
2022-10-15T14:46:47.312Z,1.48
2022-10-15T14:49:32.966Z,2.55
2022-10-15T14:52:02.666Z,2.30
2022-10-15T14:54:35.489Z,1.52
2022-10-15T14:57:03.998Z,0.80
2022-10-15T14:59:33.742Z,1.73
2022-10-15T15:02:03.473Z,1.92
2022-10-15T15:04:33.858Z,1.90
2022-10-15T15:07:01.425Z,1.35
2022-10-15T15:09:30.600Z,5.80
2022-10-15T15:11:58.181Z,0.47
2022-10-15T15:14:26.316Z,2.17
2022-10-15T15:16:53.865Z,1.70
2022-10-15T15:19:22.794Z,3.35
2022-10-15T15:21:50.477Z,2.45
2022-10-15T15:24:18.059Z,0.70
2022-10-15T15:26:45.630Z,2.50
2022-10-15T15:29:14.392Z,1.40
2022-10-15T15:31:42.134Z,1.85
2022-10-15T15:34:10.195Z,1.25
2022-10-15T15:36:39.211Z,3.58
2022-10-15T15:39:06.771Z,1.58
2022-10-15T15:41:34.816Z,1.02
2022-10-15T15:44:04.611Z,1.95
2022-10-15T15:46:32.224Z,2.38
2022-10-15T15:49:00.030Z,2.50
2022-10-15T15:51:28.938Z,0.70
2022-10-15T15:53:57.925Z,0.77
2022-10-15T15:56:26.104Z,1.15
2022-10-15T15:58:53.727Z,3.47
2022-10-15T16:01:21.724Z,3.40
2022-10-15T16:03:49.326Z,1.45
2022-10-15T16:06:16.918Z,4.80
2022-10-15T16:08:44.553Z,4.75
2022-10-15T16:11:13.436Z,2.78
2022-10-15T16:13:43.013Z,3.28
2022-10-15T16:16:10.665Z,2.78
2022-10-15T16:18:38.291Z,3.25
2022-10-15T16:21:05.946Z,2.92
2022-10-15T16:23:33.576Z,0.20
2022-10-15T16:26:01.100Z,1.55
2022-10-15T16:28:30.095Z,1.85
2022-10-15T16:31:13.777Z,0.47
2022-10-15T16:33:41.327Z,2.15
2022-10-15T16:36:09.065Z,2.92
2022-10-15T16:38:36.637Z,1.40
2022-10-15T16:41:04.505Z,1.17
2022-10-15T16:43:33.395Z,2.25
2022-10-15T16:46:01.699Z,1.00
2022-10-15T16:48:29.760Z,2.20
2022-10-15T16:51:00.760Z,2.90
2022-10-15T16:53:28.781Z,2.58
2022-10-15T16:56:00.244Z,1.15
2022-10-15T16:58:27.837Z,4.85
2022-10-15T17:00:58.991Z,4.10
2022-10-15T17:03:26.798Z,1.88
2022-10-15T17:05:56.905Z,2.70
2022-10-15T17:08:26.882Z,1.83
2022-10-15T17:10:55.430Z,1.70
2022-10-15T17:13:23.131Z,2.33
2022-10-15T17:15:51.253Z,2.85
2022-10-15T17:18:20.212Z,3.08
2022-10-15T17:20:48.505Z,3.83
2022-10-15T17:23:16.692Z,2.97
2022-10-15T17:25:44.435Z,6.25
2022-10-15T17:28:14.772Z,1.55
2022-10-15T17:30:42.668Z,2.08
2022-10-15T17:33:10.233Z,5.10
2022-10-15T17:35:39.220Z,3.80
2022-10-15T17:38:06.790Z,2.75
2022-10-15T17:40:34.417Z,3.88
2022-10-15T17:43:02.033Z,7.30
2022-10-15T17:45:29.742Z,6.55
2022-10-15T17:47:57.636Z,4.35
2022-10-15T17:50:25.243Z,1.90
2022-10-15T17:52:54.952Z,4.32
2022-10-15T17:55:23.504Z,4.03
2022-10-15T17:57:51.078Z,1.77
2022-10-15T18:00:20.040Z,2.38
2022-10-15T18:02:49.405Z,3.08
2022-10-15T18:05:17.214Z,3.65
2022-10-15T18:07:44.805Z,3.38
2022-10-15T18:10:15.029Z,2.10
2022-10-15T18:12:42.645Z,2.47
2022-10-15T18:15:10.683Z,2.70
2022-10-15T18:17:38.227Z,3.72
2022-10-15T18:20:06.282Z,3.63
2022-10-15T18:22:34.873Z,5.78
2022-10-15T18:25:02.507Z,1.50
2022-10-15T18:27:31.455Z,4.93
2022-10-15T18:30:00.277Z,3.90
2022-10-15T18:32:27.930Z,4.53
2022-10-15T18:34:55.573Z,4.75
2022-10-15T18:37:26.066Z,5.18
2022-10-15T18:39:53.824Z,4.28
2022-10-15T18:42:21.409Z,6.90
2022-10-15T18:44:50.343Z,3.90
2022-10-15T18:47:17.908Z,3.58
2022-10-15T18:49:45.540Z,4.65
2022-10-15T18:52:21.728Z,3.15
2022-10-15T18:55:00.929Z,5.63
2022-10-15T18:57:28.592Z,4.82
2022-10-15T18:59:57.641Z,3.00
2022-10-15T19:02:25.426Z,2.92
2022-10-15T19:04:53.537Z,3.30
2022-10-15T19:07:21.104Z,2.00
2022-10-15T19:09:48.761Z,2.22
2022-10-15T19:12:19.563Z,2.53
2022-10-15T19:14:47.174Z,3.95
2022-10-15T19:17:16.085Z,1.92
2022-10-15T19:19:48.353Z,2.63
2022-10-15T19:22:15.961Z,5.45
2022-10-15T19:24:43.548Z,3.65
2022-10-15T19:27:11.497Z,4.43
2022-10-15T19:29:39.321Z,1.45
2022-10-15T19:32:06.966Z,4.35
2022-10-15T19:34:36.424Z,3.13
2022-10-15T19:37:04.097Z,2.92
2022-10-15T19:39:37.027Z,3.40
2022-10-15T19:42:05.122Z,5.07
2022-10-15T19:44:32.680Z,6.03
2022-10-15T19:47:00.265Z,2.42
2022-10-15T19:49:27.767Z,2.90
2022-10-15T19:51:56.718Z,2.50
2022-10-15T19:56:52.702Z,2.90
2022-10-15T19:59:20.425Z,3.42
2022-10-15T20:01:48.070Z,3.28
2022-10-15T20:04:19.045Z,4.50
2022-10-15T20:06:48.732Z,2.50
2022-10-15T20:09:17.680Z,3.35
2022-10-15T20:11:45.729Z,3.65
2022-10-15T20:14:13.496Z,3.42
2022-10-15T20:16:41.034Z,3.00
2022-10-15T20:19:08.599Z,4.57
2022-10-15T20:21:36.223Z,1.98
2022-10-15T20:24:04.685Z,5.10
2022-10-15T20:26:34.079Z,5.82
2022-10-15T20:29:01.767Z,2.28
2022-10-15T20:31:32.839Z,1.92
2022-10-15T20:34:01.749Z,3.47
2022-10-15T20:36:29.755Z,3.35
2022-10-15T20:38:59.146Z,3.92
2022-10-15T20:41:26.755Z,4.15
2022-10-15T20:43:56.725Z,2.15
2022-10-15T20:46:26.471Z,4.43
2022-10-15T20:48:54.212Z,3.15
2022-10-15T20:51:24.719Z,4.50
2022-10-15T20:53:55.402Z,2.83
2022-10-15T20:56:24.229Z,2.53
2022-10-15T20:58:51.787Z,1.88
2022-10-15T21:01:20.910Z,5.38
2022-10-15T21:03:48.520Z,3.88
2022-10-15T21:06:16.169Z,2.60
2022-10-15T21:08:43.746Z,3.50
2022-10-15T21:11:11.346Z,3.03
2022-10-15T21:13:38.941Z,2.88
2022-10-15T21:16:07.501Z,2.40
2022-10-15T21:18:36.812Z,3.75
2022-10-15T21:21:05.095Z,2.67
2022-10-15T21:23:32.856Z,2.20
2022-10-15T21:26:04.847Z,3.40
2022-10-15T21:28:32.712Z,2.95
2022-10-15T21:31:00.587Z,2.35
2022-10-15T21:33:30.074Z,4.15
2022-10-15T21:35:58.996Z,6.82
2022-10-15T21:38:26.539Z,4.78
2022-10-15T21:40:54.202Z,4.40
2022-10-15T21:43:21.771Z,4.03
2022-10-15T21:45:49.294Z,4.82
2022-10-15T21:48:16.884Z,4.75
2022-10-15T21:50:47.427Z,4.43
2022-10-15T21:53:16.362Z,4.03
2022-10-15T21:55:52.747Z,5.65
2022-10-15T21:58:20.508Z,3.05
2022-10-15T22:00:48.163Z,4.50
2022-10-15T22:03:15.810Z,2.88
2022-10-15T22:05:44.219Z,7.43
2022-10-15T22:08:11.837Z,2.78
2022-10-15T22:10:41.012Z,2.40
2022-10-15T22:13:08.541Z,2.63
2022-10-15T22:15:36.129Z,6.38
2022-10-15T22:18:03.689Z,3.10
2022-10-15T22:20:31.359Z,3.70
2022-10-15T22:22:58.992Z,5.30
2022-10-15T22:25:26.558Z,3.55
2022-10-15T22:27:55.463Z,4.00
2022-10-15T22:30:23.106Z,2.53
2022-10-15T22:32:50.749Z,4.80
2022-10-15T22:35:18.353Z,12.38
2022-10-15T22:37:46.093Z,4.20
2022-10-15T22:40:13.629Z,4.93
2022-10-15T22:42:41.196Z,6.30
2022-10-15T22:45:10.346Z,2.70
2022-10-15T22:47:38.740Z,4.90
2022-10-15T22:50:06.648Z,2.58
2022-10-15T22:52:34.178Z,2.65
2022-10-15T22:55:01.787Z,2.53
2022-10-15T22:57:29.307Z,3.25
2022-10-15T22:59:59.321Z,2.72
2022-10-15T23:02:28.532Z,6.28
2022-10-15T23:04:56.240Z,1.70
2022-10-15T23:07:23.817Z,2.65
2022-10-15T23:09:51.374Z,3.08
2022-10-15T23:12:18.945Z,2.13
2022-10-15T23:14:48.450Z,3.20
2022-10-15T23:17:16.143Z,2.33
2022-10-15T23:19:45.146Z,2.17
2022-10-15T23:22:12.725Z,3.00
2022-10-15T23:24:40.303Z,2.42
2022-10-15T23:27:07.893Z,1.77
2022-10-15T23:29:35.489Z,3.40
2022-10-15T23:32:03.063Z,2.28
2022-10-15T23:34:30.676Z,2.13
2022-10-15T23:36:59.603Z,1.85
2022-10-15T23:39:27.638Z,1.75
2022-10-15T23:41:55.517Z,3.08
2022-10-15T23:44:25.526Z,2.55
2022-10-15T23:46:53.463Z,2.28
2022-10-15T23:49:21.284Z,2.45
2022-10-15T23:51:48.842Z,3.33
2022-10-15T23:54:18.860Z,1.23
2022-10-15T23:56:47.336Z,3.28
2022-10-15T23:59:15.279Z,0.93
